createdAt,value
2018-12-22T00:01:13.491Z,9.50
2018-12-22T00:03:40.945Z,9.50
2018-12-22T00:06:08.451Z,9.60
2018-12-22T00:08:35.913Z,9.50
2018-12-22T00:11:03.448Z,9.60
2018-12-22T00:13:30.910Z,9.60
2018-12-22T00:15:58.364Z,9.60
2018-12-22T00:18:25.806Z,9.60
2018-12-22T00:20:53.323Z,9.60
2018-12-22T00:23:20.774Z,9.50
2018-12-22T00:25:48.236Z,9.50
2018-12-22T00:28:22.114Z,9.40
2018-12-22T00:30:45.124Z,9.30
2018-12-22T00:33:12.581Z,9.30
2018-12-22T00:35:40.047Z,9.30
2018-12-22T00:38:07.485Z,9.30
2018-12-22T00:40:34.941Z,9.40
2018-12-22T00:43:02.397Z,9.40
2018-12-22T00:45:29.846Z,9.40
2018-12-22T00:47:57.316Z,9.30
2018-12-22T00:50:24.747Z,9.20
2018-12-22T00:52:52.268Z,9.20
2018-12-22T00:55:19.732Z,9.30
2018-12-22T00:57:47.245Z,9.30
2018-12-22T01:00:14.756Z,9.30
2018-12-22T01:02:42.205Z,9.40
2018-12-22T01:05:09.689Z,9.40
2018-12-22T01:07:37.139Z,9.50
2018-12-22T01:10:07.271Z,9.50
2018-12-22T01:12:34.735Z,9.50
2018-12-22T01:15:02.348Z,9.60
2018-12-22T01:17:29.859Z,9.60
2018-12-22T01:19:57.298Z,9.60
2018-12-22T01:22:24.753Z,9.70
2018-12-22T01:24:52.205Z,9.70
2018-12-22T01:27:19.649Z,9.70
2018-12-22T01:29:47.100Z,9.70
2018-12-22T01:32:14.651Z,9.70
2018-12-22T01:34:42.123Z,9.70
2018-12-22T01:37:09.577Z,9.70
2018-12-22T01:39:37.022Z,9.70
2018-12-22T01:42:04.583Z,9.70
2018-12-22T01:44:32.063Z,9.70
2018-12-22T01:46:59.536Z,9.60
2018-12-22T01:49:27.115Z,9.60
2018-12-22T01:51:54.664Z,9.60
2018-12-22T01:54:22.267Z,9.60
2018-12-22T01:56:49.710Z,9.70
2018-12-22T01:59:17.150Z,9.70
2018-12-22T02:01:44.726Z,9.70
2018-12-22T02:04:12.181Z,9.80
2018-12-22T02:06:39.625Z,9.80
2018-12-22T02:09:07.160Z,9.90
2018-12-22T02:11:34.614Z,9.90
2018-12-22T02:14:02.113Z,9.90
2018-12-22T02:16:29.575Z,9.90
2018-12-22T02:18:57.041Z,9.90
2018-12-22T02:21:24.573Z,9.90
2018-12-22T02:23:51.598Z,9.90
2018-12-22T02:26:18.613Z,9.90
2018-12-22T02:28:45.630Z,9.80
2018-12-22T02:31:12.653Z,9.60
2018-12-22T02:33:39.750Z,9.60
2018-12-22T02:36:06.746Z,9.50
2018-12-22T02:38:33.781Z,9.50
2018-12-22T02:41:00.769Z,9.40
2018-12-22T02:43:27.787Z,9.40
2018-12-22T02:45:54.803Z,9.40
2018-12-22T02:48:22.008Z,9.40
2018-12-22T02:50:48.990Z,9.40
2018-12-22T02:53:16.446Z,9.40
2018-12-22T02:55:43.889Z,9.40
2018-12-22T02:58:11.345Z,9.50
2018-12-22T03:00:38.804Z,9.70
2018-12-22T03:03:06.251Z,9.80
2018-12-22T03:05:33.718Z,9.80
2018-12-22T03:08:01.202Z,9.90
2018-12-22T03:10:28.645Z,9.90
2018-12-22T03:12:56.114Z,10.00
2018-12-22T03:15:23.576Z,10.00
2018-12-22T03:17:51.028Z,10.00
2018-12-22T03:20:18.520Z,10.00
2018-12-22T03:22:45.974Z,10.10
2018-12-22T03:25:13.479Z,10.10
2018-12-22T03:27:40.936Z,10.20
2018-12-22T03:30:09.987Z,10.20
2018-12-22T03:32:37.493Z,10.10
2018-12-22T03:35:05.406Z,10.10
2018-12-22T03:37:32.861Z,10.00
2018-12-22T03:40:00.303Z,10.00
2018-12-22T03:42:27.854Z,10.00
2018-12-22T03:44:55.391Z,10.00
2018-12-22T03:47:22.842Z,10.00
2018-12-22T03:49:50.315Z,10.00
2018-12-22T03:52:17.842Z,9.80
2018-12-22T03:54:45.388Z,9.70
2018-12-22T03:57:12.841Z,9.80
2018-12-22T03:59:40.302Z,9.80
2018-12-22T04:02:07.742Z,9.80
2018-12-22T04:04:35.345Z,9.80
2018-12-22T04:07:03.855Z,9.80
2018-12-22T04:09:31.487Z,9.80
2018-12-22T04:11:58.968Z,9.90
2018-12-22T04:14:26.485Z,9.90
2018-12-22T04:16:55.300Z,9.90
2018-12-22T04:19:22.765Z,10.00
2018-12-22T04:21:50.238Z,10.00
2018-12-22T04:24:17.763Z,10.00
2018-12-22T04:26:45.207Z,10.00
2018-12-22T04:29:12.927Z,10.00
2018-12-22T04:31:40.381Z,10.00
2018-12-22T04:34:07.928Z,9.90
2018-12-22T04:36:35.442Z,9.80
2018-12-22T04:39:04.381Z,9.90
2018-12-22T04:41:31.819Z,9.90
2018-12-22T04:43:59.256Z,9.90
2018-12-22T04:46:26.743Z,10.00
2018-12-22T04:48:54.183Z,10.00
2018-12-22T04:51:21.646Z,10.00
2018-12-22T04:53:49.098Z,10.00
2018-12-22T04:56:16.558Z,10.00
2018-12-22T04:58:44.030Z,10.10
2018-12-22T05:01:11.497Z,10.10
2018-12-22T05:03:38.944Z,10.20
2018-12-22T05:06:06.395Z,10.20
2018-12-22T05:08:33.969Z,10.20
2018-12-22T05:11:01.445Z,10.20
2018-12-22T05:13:28.894Z,10.20
2018-12-22T05:15:56.348Z,10.30
2018-12-22T05:18:23.824Z,10.20
2018-12-22T05:20:51.262Z,10.30
2018-12-22T05:23:18.720Z,10.30
2018-12-22T05:25:46.166Z,10.30
2018-12-22T05:28:13.614Z,10.30
2018-12-22T05:30:41.991Z,10.20
2018-12-22T05:33:09.538Z,10.20
2018-12-22T05:35:37.004Z,10.20
2018-12-22T05:38:04.479Z,10.20
2018-12-22T05:40:31.945Z,10.10
2018-12-22T05:42:59.406Z,10.20
2018-12-22T05:45:26.863Z,10.00
2018-12-22T05:47:54.310Z,10.00
2018-12-22T05:50:21.791Z,10.00
2018-12-22T05:52:49.278Z,10.00
2018-12-22T05:55:16.737Z,9.90
2018-12-22T05:57:44.302Z,9.90
2018-12-22T06:00:11.761Z,9.90
2018-12-22T06:02:39.216Z,9.80
2018-12-22T06:05:08.855Z,9.80
2018-12-22T06:07:36.335Z,9.80
2018-12-22T06:10:05.560Z,9.70
2018-12-22T06:12:33.044Z,9.60
2018-12-22T06:15:00.517Z,9.60
2018-12-22T06:17:28.048Z,9.60
2018-12-22T06:19:55.496Z,9.70
2018-12-22T06:22:22.953Z,9.70
2018-12-22T06:24:50.420Z,9.80
2018-12-22T06:27:17.878Z,9.80
2018-12-22T06:29:45.362Z,9.80
2018-12-22T06:32:12.871Z,9.80
2018-12-22T06:34:40.318Z,9.80
2018-12-22T06:37:07.809Z,9.80
2018-12-22T06:39:35.252Z,9.80
2018-12-22T06:42:02.712Z,9.90
2018-12-22T06:44:30.159Z,9.80
2018-12-22T06:46:57.681Z,9.90
2018-12-22T06:49:25.189Z,10.00
2018-12-22T06:51:52.684Z,10.00
2018-12-22T06:54:20.178Z,9.90
2018-12-22T06:56:47.617Z,9.90
2018-12-22T06:59:15.111Z,9.80
2018-12-22T07:01:42.548Z,9.90
2018-12-22T07:04:10.022Z,9.90
2018-12-22T07:06:37.512Z,9.90
2018-12-22T07:09:06.273Z,9.80
2018-12-22T07:11:33.714Z,9.70
2018-12-22T07:14:01.151Z,9.70
2018-12-22T07:16:28.617Z,9.60
2018-12-22T07:18:56.078Z,9.60
2018-12-22T07:21:23.518Z,9.50
2018-12-22T07:23:50.993Z,9.50
2018-12-22T07:26:18.519Z,9.50
2018-12-22T07:28:45.969Z,9.40
2018-12-22T07:31:13.464Z,9.30
2018-12-22T07:33:40.981Z,9.30
2018-12-22T07:36:08.423Z,9.30
2018-12-22T07:38:35.870Z,9.30
2018-12-22T07:41:03.365Z,9.20
2018-12-22T07:43:30.882Z,9.20
2018-12-22T07:45:58.328Z,9.20
2018-12-22T07:48:25.783Z,9.10
2018-12-22T07:50:53.246Z,9.00
2018-12-22T07:53:20.693Z,8.80
2018-12-22T07:55:48.134Z,8.80
2018-12-22T07:58:15.592Z,8.80
2018-12-22T08:00:43.030Z,8.70
2018-12-22T08:03:10.513Z,8.70
2018-12-22T08:05:39.049Z,8.70
2018-12-22T08:08:06.709Z,8.70
2018-12-22T08:10:34.178Z,8.70
2018-12-22T08:13:01.701Z,8.80
2018-12-22T08:15:29.188Z,8.90
2018-12-22T08:17:56.691Z,8.90
2018-12-22T08:20:24.142Z,9.10
2018-12-22T08:22:51.613Z,9.10
2018-12-22T08:25:19.055Z,9.10
2018-12-22T08:27:46.515Z,9.10
2018-12-22T08:30:13.966Z,9.10
2018-12-22T08:32:41.425Z,9.20
2018-12-22T08:35:08.935Z,9.20
2018-12-22T08:37:36.406Z,9.10
2018-12-22T08:40:06.257Z,9.20
2018-12-22T08:42:33.695Z,9.20
2018-12-22T08:45:01.166Z,9.20
2018-12-22T08:47:28.617Z,9.20
2018-12-22T08:49:56.074Z,9.20
2018-12-22T08:52:23.615Z,9.20
2018-12-22T08:54:51.088Z,9.20
2018-12-22T08:57:18.583Z,9.20
2018-12-22T08:59:46.056Z,9.20
2018-12-22T09:02:13.509Z,9.30
2018-12-22T09:04:40.996Z,9.30
2018-12-22T09:07:08.461Z,9.40
2018-12-22T09:09:35.900Z,9.40
2018-12-22T09:12:03.445Z,9.50
2018-12-22T09:14:30.888Z,9.40
2018-12-22T09:16:58.345Z,9.40
2018-12-22T09:19:25.810Z,9.40
2018-12-22T09:21:53.258Z,9.40
2018-12-22T09:24:20.712Z,9.40
2018-12-22T09:26:48.172Z,9.40
2018-12-22T09:29:15.629Z,9.30
2018-12-22T09:31:43.078Z,9.30
2018-12-22T09:34:13.529Z,9.30
2018-12-22T09:36:40.292Z,9.30
2018-12-22T09:39:07.428Z,9.30
2018-12-22T09:41:34.473Z,9.30
2018-12-22T09:44:01.494Z,9.20
2018-12-22T09:46:28.489Z,9.10
2018-12-22T09:48:55.501Z,9.00
2018-12-22T09:51:22.632Z,8.90
2018-12-22T09:53:49.698Z,8.80
2018-12-22T09:56:16.710Z,8.80
2018-12-22T09:58:43.767Z,8.70
2018-12-22T10:01:11.219Z,8.70
2018-12-22T10:03:38.670Z,8.80
2018-12-22T10:06:06.114Z,8.90
2018-12-22T10:08:33.568Z,9.00
2018-12-22T10:11:01.033Z,9.10
2018-12-22T10:13:28.490Z,9.20
2018-12-22T10:15:55.949Z,9.20
2018-12-22T10:18:23.407Z,9.30
2018-12-22T10:20:50.873Z,9.40
2018-12-22T10:23:18.313Z,9.40
2018-12-22T10:25:45.749Z,9.50
2018-12-22T10:28:13.197Z,9.50
2018-12-22T10:30:40.692Z,9.50
2018-12-22T10:33:08.241Z,9.50
2018-12-22T10:35:35.694Z,9.60
2018-12-22T10:38:03.160Z,9.60
2018-12-22T10:40:30.717Z,9.50
2018-12-22T10:42:58.158Z,9.60
2018-12-22T10:45:25.624Z,9.70
2018-12-22T10:47:53.087Z,9.70
2018-12-22T10:50:20.584Z,9.70
2018-12-22T10:52:48.832Z,9.70
2018-12-22T10:55:16.538Z,9.70
2018-12-22T10:57:43.999Z,9.80
2018-12-22T11:00:12.381Z,9.80
2018-12-22T11:02:39.894Z,9.80
2018-12-22T11:05:09.732Z,9.90
2018-12-22T11:07:38.035Z,9.90
2018-12-22T11:10:09.271Z,9.90
2018-12-22T11:12:36.734Z,9.90
2018-12-22T11:15:06.666Z,9.80
2018-12-22T11:17:34.129Z,9.90
2018-12-22T11:20:01.597Z,9.90
2018-12-22T11:22:29.051Z,9.80
2018-12-22T11:24:56.512Z,9.90
2018-12-22T11:27:24.010Z,9.90
2018-12-22T11:29:51.502Z,10.00
2018-12-22T11:32:18.960Z,10.00
2018-12-22T11:34:46.433Z,10.10
2018-12-22T11:37:13.922Z,10.20
2018-12-22T11:39:41.566Z,10.30
2018-12-22T11:42:09.029Z,10.40
2018-12-22T11:44:36.502Z,10.40
2018-12-22T11:47:07.261Z,10.50
2018-12-22T11:49:34.765Z,10.50
2018-12-22T11:52:02.229Z,10.50
2018-12-22T11:54:29.730Z,10.60
2018-12-22T11:56:57.212Z,10.60
2018-12-22T11:59:24.655Z,10.60
2018-12-22T12:01:52.125Z,10.60
2018-12-22T12:04:19.570Z,10.60
2018-12-22T12:06:47.127Z,10.60
2018-12-22T12:09:14.620Z,10.60
2018-12-22T12:11:42.081Z,10.60
2018-12-22T12:14:09.535Z,10.50
2018-12-22T12:16:37.861Z,10.50
2018-12-22T12:19:10.023Z,10.40
2018-12-22T12:21:37.510Z,10.40
2018-12-22T12:24:05.058Z,10.40
2018-12-22T12:26:32.581Z,10.40
2018-12-22T12:29:00.092Z,10.40
2018-12-22T12:31:27.553Z,10.40
2018-12-22T12:33:55.019Z,10.40
2018-12-22T12:36:22.552Z,10.50
2018-12-22T12:38:50.000Z,10.50
2018-12-22T12:41:17.595Z,10.50
2018-12-22T12:43:45.035Z,10.50
2018-12-22T12:46:12.526Z,10.50
2018-12-22T12:48:39.991Z,10.50
2018-12-22T12:51:07.456Z,10.50
2018-12-22T12:53:34.932Z,10.60
2018-12-22T12:56:02.399Z,10.50
2018-12-22T12:58:29.860Z,10.50
2018-12-22T13:00:57.314Z,10.60
2018-12-22T13:03:24.784Z,10.70
2018-12-22T13:05:52.238Z,10.80
2018-12-22T13:08:19.694Z,10.90
2018-12-22T13:10:47.179Z,10.90
2018-12-22T13:13:27.666Z,10.90
2018-12-22T13:15:55.124Z,10.90
2018-12-22T13:18:22.688Z,10.90
2018-12-22T13:20:50.166Z,10.80
2018-12-22T13:23:17.611Z,10.70
2018-12-22T13:25:45.100Z,10.60
2018-12-22T13:28:12.550Z,10.60
2018-12-22T13:30:40.017Z,10.50
2018-12-22T13:33:07.813Z,10.50
2018-12-22T13:35:35.313Z,10.40
2018-12-22T13:38:02.764Z,10.40
2018-12-22T13:40:30.239Z,10.40
2018-12-22T13:42:57.716Z,10.30
2018-12-22T13:45:25.185Z,10.40
2018-12-22T13:47:52.883Z,10.40
2018-12-22T13:50:21.042Z,10.40
2018-12-22T13:52:48.660Z,10.40
2018-12-22T13:55:16.163Z,10.40
2018-12-22T13:57:43.843Z,10.40
2018-12-22T14:00:18.462Z,10.50
2018-12-22T14:02:45.966Z,10.50
2018-12-22T14:05:18.006Z,10.50
2018-12-22T14:07:45.465Z,10.50
2018-12-22T14:10:13.263Z,10.50
2018-12-22T14:12:40.785Z,10.50
2018-12-22T14:15:12.035Z,10.30
2018-12-22T14:17:41.596Z,10.30
2018-12-22T14:20:09.940Z,10.30
2018-12-22T14:22:37.375Z,10.30
2018-12-22T14:25:09.539Z,10.30
2018-12-22T14:27:37.017Z,10.30
2018-12-22T14:30:09.081Z,10.30
2018-12-22T14:32:36.537Z,10.40
2018-12-22T14:35:09.677Z,10.30
2018-12-22T14:37:37.131Z,10.30
2018-12-22T14:40:08.092Z,10.20
2018-12-22T14:42:35.581Z,10.20
2018-12-22T14:45:04.116Z,10.20
2018-12-22T14:47:31.569Z,10.10
2018-12-22T14:49:59.010Z,9.90
2018-12-22T14:52:26.473Z,9.70
2018-12-22T14:54:53.910Z,9.60
2018-12-22T14:57:21.519Z,9.50
2018-12-22T14:59:48.955Z,9.40
2018-12-22T15:02:16.395Z,9.20
2018-12-22T15:04:43.856Z,9.20
2018-12-22T15:07:11.398Z,9.10
2018-12-22T15:09:38.842Z,9.00
2018-12-22T15:12:06.312Z,8.90
2018-12-22T15:14:33.777Z,8.80
2018-12-22T15:17:01.240Z,8.90
2018-12-22T15:19:28.954Z,8.80
2018-12-22T15:21:56.404Z,8.90
2018-12-22T15:24:23.938Z,9.00
2018-12-22T15:26:51.381Z,9.00
2018-12-22T15:29:18.849Z,9.00
2018-12-22T15:31:46.312Z,9.00
2018-12-22T15:34:13.767Z,8.90
2018-12-22T15:36:41.272Z,8.90
2018-12-22T15:39:08.858Z,8.70
2018-12-22T15:41:36.313Z,8.70
2018-12-22T15:44:03.798Z,8.60
2018-12-22T15:46:31.289Z,8.60
2018-12-22T15:48:58.722Z,8.60
2018-12-22T15:51:26.181Z,8.40
2018-12-22T15:53:53.638Z,8.30
2018-12-22T15:56:21.090Z,8.30
2018-12-22T15:58:48.527Z,8.20
2018-12-22T16:01:15.972Z,8.10
2018-12-22T16:03:43.421Z,8.10
2018-12-22T16:06:10.909Z,8.10
2018-12-22T16:08:38.364Z,8.10
2018-12-22T16:11:05.828Z,8.10
2018-12-22T16:13:33.289Z,8.10
2018-12-22T16:16:00.789Z,8.00
2018-12-22T16:18:28.237Z,8.00
2018-12-22T16:20:55.764Z,8.10
2018-12-22T16:23:23.252Z,8.10
2018-12-22T16:25:50.694Z,8.10
2018-12-22T16:28:18.179Z,8.20
2018-12-22T16:30:47.801Z,8.20
2018-12-22T16:33:15.252Z,8.30
2018-12-22T16:35:42.704Z,8.30
2018-12-22T16:38:10.142Z,8.30
2018-12-22T16:40:37.650Z,8.30
2018-12-22T16:43:08.502Z,8.30
2018-12-22T16:45:38.832Z,8.40
2018-12-22T16:48:06.410Z,8.40
2018-12-22T16:50:36.048Z,8.40
2018-12-22T16:53:03.528Z,8.40
2018-12-22T16:55:31.007Z,8.40
2018-12-22T16:58:06.304Z,8.40
2018-12-22T17:00:42.244Z,8.30
2018-12-22T17:03:10.929Z,8.30
2018-12-22T17:05:38.748Z,8.30
2018-12-22T17:08:06.194Z,8.30
2018-12-22T17:10:33.814Z,8.30
2018-12-22T17:13:01.314Z,8.20
2018-12-22T17:15:28.749Z,8.20
2018-12-22T17:17:56.210Z,8.20
2018-12-22T17:20:23.854Z,8.20
2018-12-22T17:23:00.038Z,8.20
2018-12-22T17:25:27.622Z,8.20
2018-12-22T17:27:55.076Z,8.30
2018-12-22T17:30:22.611Z,8.30
2018-12-22T17:32:50.035Z,8.30
2018-12-22T17:35:17.528Z,8.30
2018-12-22T17:37:45.025Z,8.30
2018-12-22T17:40:12.490Z,8.30
2018-12-22T17:42:39.938Z,8.30
2018-12-22T17:45:10.305Z,8.30
2018-12-22T17:47:37.785Z,8.30
2018-12-22T17:50:07.915Z,8.30
2018-12-22T17:52:35.360Z,8.30
2018-12-22T17:55:02.849Z,8.20
2018-12-22T17:57:30.338Z,8.20
2018-12-22T17:59:57.802Z,8.20
2018-12-22T18:02:25.245Z,8.20
2018-12-22T18:04:52.701Z,8.10
2018-12-22T18:07:20.164Z,8.20
2018-12-22T18:09:47.642Z,8.10
2018-12-22T18:12:15.109Z,8.10
2018-12-22T18:14:42.603Z,8.10
2018-12-22T18:17:10.139Z,8.10
2018-12-22T18:19:37.593Z,8.10
2018-12-22T18:22:05.033Z,8.10
2018-12-22T18:24:32.567Z,8.10
2018-12-22T18:27:00.027Z,8.10
2018-12-22T18:29:27.457Z,8.10
2018-12-22T18:31:54.965Z,8.10
2018-12-22T18:34:22.424Z,8.00
2018-12-22T18:36:49.877Z,8.00
2018-12-22T18:39:17.396Z,8.00
2018-12-22T18:41:45.216Z,8.00
2018-12-22T18:44:12.655Z,7.90
2018-12-22T18:46:40.130Z,7.90
2018-12-22T18:49:07.580Z,8.00
2018-12-22T18:51:35.046Z,8.00
2018-12-22T18:54:02.504Z,8.00
2018-12-22T18:56:29.985Z,8.00
2018-12-22T18:58:57.426Z,8.00
2018-12-22T19:01:24.925Z,8.10
2018-12-22T19:03:52.413Z,8.10
2018-12-22T19:06:19.856Z,8.20
2018-12-22T19:08:47.345Z,8.10
2018-12-22T19:11:15.142Z,8.10
2018-12-22T19:13:42.608Z,8.10
2018-12-22T19:16:10.061Z,8.10
2018-12-22T19:18:37.502Z,8.10
2018-12-22T19:21:04.964Z,8.00
2018-12-22T19:23:32.424Z,8.00
2018-12-22T19:25:59.905Z,7.90
2018-12-22T19:28:27.354Z,7.90
2018-12-22T19:30:54.809Z,7.90
2018-12-22T19:33:22.287Z,7.90
2018-12-22T19:35:49.732Z,7.80
2018-12-22T19:38:17.337Z,7.90
2018-12-22T19:40:44.860Z,7.90
2018-12-22T19:43:12.309Z,7.80
2018-12-22T19:45:39.774Z,7.80
2018-12-22T19:48:07.234Z,7.80
2018-12-22T19:50:34.674Z,7.80
2018-12-22T19:53:02.124Z,7.80
2018-12-22T19:55:29.580Z,7.90
2018-12-22T19:57:57.039Z,7.90
2018-12-22T20:00:24.501Z,7.90
2018-12-22T20:02:51.934Z,7.90
2018-12-22T20:05:19.389Z,7.90
2018-12-22T20:07:46.828Z,7.90
2018-12-22T20:10:14.280Z,7.90
2018-12-22T20:12:41.748Z,7.90
2018-12-22T20:15:09.228Z,7.90
2018-12-22T20:17:36.669Z,7.90
2018-12-22T20:20:06.498Z,7.90
2018-12-22T20:22:33.947Z,8.00
2018-12-22T20:25:01.390Z,8.00
2018-12-22T20:27:28.933Z,8.00
2018-12-22T20:29:56.389Z,8.00
2018-12-22T20:32:23.862Z,8.10
2018-12-22T20:34:51.304Z,8.10
2018-12-22T20:37:18.748Z,8.10
2018-12-22T20:39:46.224Z,8.10
2018-12-22T20:42:13.673Z,8.10
2018-12-22T20:44:41.152Z,8.10
2018-12-22T20:47:08.702Z,8.20
2018-12-22T20:49:36.166Z,8.20
2018-12-22T20:52:03.619Z,8.20
2018-12-22T20:54:31.089Z,8.20
2018-12-22T20:56:58.556Z,8.20
2018-12-22T20:59:26.015Z,8.20
2018-12-22T21:01:53.450Z,8.20
2018-12-22T21:04:20.897Z,8.20
2018-12-22T21:06:48.342Z,8.20
2018-12-22T21:09:15.791Z,8.20
2018-12-22T21:11:43.300Z,8.20
2018-12-22T21:14:10.748Z,8.20
2018-12-22T21:16:38.203Z,8.20
2018-12-22T21:19:05.646Z,8.30
2018-12-22T21:21:33.112Z,8.30
2018-12-22T21:24:00.545Z,8.30
2018-12-22T21:26:27.989Z,8.30
2018-12-22T21:28:55.435Z,8.40
2018-12-22T21:31:22.918Z,8.40
2018-12-22T21:33:50.341Z,8.40
2018-12-22T21:36:17.791Z,8.40
2018-12-22T21:38:45.230Z,8.40
2018-12-22T21:41:12.685Z,8.50
2018-12-22T21:43:40.125Z,8.50
2018-12-22T21:46:07.582Z,8.40
2018-12-22T21:48:35.037Z,8.40
2018-12-22T21:51:02.479Z,8.50
2018-12-22T21:53:29.940Z,8.50
2018-12-22T21:55:57.375Z,8.50
2018-12-22T21:58:24.840Z,8.50
2018-12-22T22:00:52.271Z,8.50
2018-12-22T22:03:19.714Z,8.40
2018-12-22T22:05:47.199Z,8.50
2018-12-22T22:08:14.647Z,8.40
2018-12-22T22:10:42.109Z,8.40
2018-12-22T22:13:09.555Z,8.40
2018-12-22T22:15:37.013Z,8.40
2018-12-22T22:18:04.908Z,8.40
2018-12-22T22:20:32.365Z,8.40
2018-12-22T22:22:59.806Z,8.40
2018-12-22T22:25:27.284Z,8.40
2018-12-22T22:27:54.734Z,8.40
2018-12-22T22:30:22.217Z,8.40
2018-12-22T22:32:49.672Z,8.40
2018-12-22T22:35:17.131Z,8.40
2018-12-22T22:37:44.566Z,8.30
2018-12-22T22:40:12.009Z,8.30
2018-12-22T22:42:39.446Z,8.30
2018-12-22T22:45:06.953Z,8.20
2018-12-22T22:47:34.421Z,8.30
2018-12-22T22:50:01.935Z,8.30
2018-12-22T22:52:29.368Z,8.20
2018-12-22T22:54:56.808Z,8.30
2018-12-22T22:57:24.246Z,8.30
2018-12-22T22:59:51.724Z,8.30
2018-12-22T23:02:19.158Z,8.30
2018-12-22T23:04:54.140Z,8.40
2018-12-22T23:07:16.085Z,8.50
2018-12-22T23:09:43.540Z,8.40
2018-12-22T23:12:10.972Z,8.40
2018-12-22T23:14:38.421Z,8.30
2018-12-22T23:17:05.872Z,8.30
2018-12-22T23:19:35.071Z,8.30
2018-12-22T23:22:02.707Z,8.30
2018-12-22T23:24:30.166Z,8.30
2018-12-22T23:26:57.609Z,8.30
2018-12-22T23:29:25.072Z,8.20
2018-12-22T23:31:52.524Z,8.20
2018-12-22T23:34:19.980Z,8.20
2018-12-22T23:36:47.497Z,8.10
2018-12-22T23:39:14.952Z,8.10
2018-12-22T23:41:42.459Z,8.10
2018-12-22T23:44:09.906Z,8.10
2018-12-22T23:46:37.364Z,8.10
2018-12-22T23:49:04.869Z,8.10
2018-12-22T23:51:32.312Z,8.00
2018-12-22T23:53:59.758Z,8.00
2018-12-22T23:56:27.207Z,8.00
2018-12-22T23:58:54.689Z,8.00
